createdAt,value
2019-01-24T00:00:28.127Z,59.67
2019-01-24T00:02:56.377Z,65.33
2019-01-24T00:05:24.916Z,62.70
2019-01-24T00:07:54.202Z,63.37
2019-01-24T00:10:22.358Z,54.67
2019-01-24T00:12:50.853Z,59.30
2019-01-24T00:15:19.623Z,59.73
2019-01-24T00:17:48.151Z,66.03
2019-01-24T00:20:17.158Z,65.13
2019-01-24T00:22:45.771Z,65.10
2019-01-24T00:25:14.440Z,66.23
2019-01-24T00:27:43.028Z,68.13
2019-01-24T00:30:13.996Z,57.47
2019-01-24T00:32:43.721Z,68.30
2019-01-24T00:35:12.555Z,67.73
2019-01-24T00:37:41.177Z,63.37
2019-01-24T00:40:18.439Z,66.50
2019-01-24T00:42:47.314Z,61.50
2019-01-24T00:45:16.067Z,71.00
2019-01-24T00:47:44.632Z,62.13
2019-01-24T00:50:14.671Z,59.47
2019-01-24T00:52:43.412Z,66.73
2019-01-24T00:55:14.135Z,68.67
2019-01-24T00:57:42.871Z,63.00
2019-01-24T01:00:12.852Z,63.67
2019-01-24T01:02:41.657Z,63.80
2019-01-24T01:05:12.333Z,58.67
2019-01-24T01:07:40.963Z,63.63
2019-01-24T01:10:11.087Z,68.50
2019-01-24T01:12:39.583Z,58.07
2019-01-24T01:15:11.140Z,61.93
2019-01-24T01:17:39.664Z,64.07
2019-01-24T01:20:11.158Z,65.90
2019-01-24T01:22:39.728Z,74.50
2019-01-24T01:25:12.079Z,65.67
2019-01-24T01:27:40.721Z,64.00
2019-01-24T01:30:12.671Z,64.33
2019-01-24T01:32:41.372Z,67.63
2019-01-24T01:35:10.017Z,64.27
2019-01-24T01:37:38.499Z,60.93
2019-01-24T01:40:13.284Z,60.37
2019-01-24T01:42:41.756Z,69.97
2019-01-24T01:45:13.496Z,63.73
2019-01-24T01:47:42.310Z,67.53
2019-01-24T01:50:14.243Z,63.10
2019-01-24T01:52:42.785Z,65.97
2019-01-24T01:55:11.833Z,64.53
2019-01-24T01:57:40.415Z,61.83
2019-01-24T02:00:12.704Z,65.10
2019-01-24T02:02:41.219Z,70.47
2019-01-24T02:05:11.036Z,75.33
2019-01-24T02:07:39.604Z,66.27
2019-01-24T02:10:11.560Z,68.13
2019-01-24T02:12:40.046Z,63.70
2019-01-24T02:15:10.863Z,64.93
2019-01-24T02:17:39.342Z,67.97
2019-01-24T02:20:19.456Z,71.23
2019-01-24T02:22:47.772Z,67.83
2019-01-24T02:25:16.381Z,64.17
2019-01-24T02:27:45.414Z,62.33
2019-01-24T02:30:15.180Z,73.93
2019-01-24T02:32:43.310Z,70.73
2019-01-24T02:35:11.536Z,66.17
2019-01-24T02:37:39.737Z,71.03
2019-01-24T02:40:09.212Z,72.43
2019-01-24T02:42:37.697Z,73.47
2019-01-24T02:45:07.495Z,66.43
2019-01-24T02:47:36.106Z,68.07
2019-01-24T02:50:08.197Z,64.27
2019-01-24T02:52:36.696Z,74.60
2019-01-24T02:55:06.699Z,68.77
2019-01-24T02:57:35.196Z,63.87
2019-01-24T03:00:04.961Z,60.73
2019-01-24T03:02:33.459Z,66.53
2019-01-24T03:05:01.933Z,63.83
2019-01-24T03:07:30.092Z,64.30
2019-01-24T03:09:59.424Z,62.20
2019-01-24T03:12:27.666Z,70.47
2019-01-24T03:14:56.091Z,59.67
2019-01-24T03:17:25.244Z,61.20
2019-01-24T03:19:53.412Z,62.67
2019-01-24T03:22:21.964Z,70.07
2019-01-24T03:24:50.818Z,60.30
2019-01-24T03:27:19.352Z,65.77
2019-01-24T03:29:47.518Z,60.80
2019-01-24T03:32:15.983Z,62.50
2019-01-24T03:34:44.617Z,60.47
2019-01-24T03:37:14.384Z,60.30
2019-01-24T03:39:42.900Z,65.67
2019-01-24T03:42:12.283Z,65.87
2019-01-24T03:44:40.641Z,64.27
2019-01-24T03:47:09.167Z,65.87
2019-01-24T03:49:37.645Z,61.87
2019-01-24T03:52:06.194Z,60.43
2019-01-24T03:54:34.688Z,56.80
2019-01-24T03:57:03.161Z,67.40
2019-01-24T03:59:31.614Z,59.90
2019-01-24T04:02:00.416Z,66.20
2019-01-24T04:04:28.896Z,66.33
2019-01-24T04:06:57.386Z,61.57
2019-01-24T04:09:25.886Z,63.33
2019-01-24T04:11:54.478Z,64.43
2019-01-24T04:14:22.942Z,59.23
2019-01-24T04:16:51.403Z,57.47
2019-01-24T04:19:19.901Z,61.40
2019-01-24T04:21:48.366Z,63.23
2019-01-24T04:24:16.871Z,63.77
2019-01-24T04:26:45.425Z,68.90
2019-01-24T04:29:13.560Z,65.13
2019-01-24T04:31:42.244Z,60.87
2019-01-24T04:34:11.855Z,57.57
2019-01-24T04:36:40.349Z,59.80
2019-01-24T04:39:08.858Z,67.23
2019-01-24T04:41:37.323Z,67.57
2019-01-24T04:44:05.932Z,66.57
2019-01-24T04:46:34.698Z,72.03
2019-01-24T04:49:03.187Z,63.63
2019-01-24T04:51:31.762Z,60.70
2019-01-24T04:54:00.231Z,61.73
2019-01-24T04:56:28.717Z,60.87
2019-01-24T04:58:57.197Z,67.77
2019-01-24T05:01:25.947Z,63.23
2019-01-24T05:03:54.434Z,62.37
2019-01-24T05:06:22.922Z,61.10
2019-01-24T05:08:51.409Z,63.27
2019-01-24T05:11:19.903Z,60.13
2019-01-24T05:13:48.403Z,56.53
2019-01-24T05:16:17.106Z,61.77
2019-01-24T05:18:45.726Z,63.30
2019-01-24T05:21:14.206Z,59.67
2019-01-24T05:23:42.701Z,70.90
2019-01-24T05:26:11.182Z,65.83
2019-01-24T05:28:39.681Z,60.87
2019-01-24T05:31:08.070Z,63.30
2019-01-24T05:33:36.818Z,62.03
2019-01-24T05:36:05.408Z,57.00
2019-01-24T05:38:33.970Z,61.93
2019-01-24T05:41:02.437Z,64.40
2019-01-24T05:43:30.954Z,62.40
2019-01-24T05:45:59.747Z,70.37
2019-01-24T05:48:28.224Z,67.93
2019-01-24T05:50:56.725Z,64.90
2019-01-24T05:53:25.208Z,70.73
2019-01-24T05:55:53.712Z,59.77
2019-01-24T05:58:22.201Z,63.73
2019-01-24T06:00:51.139Z,61.20
2019-01-24T06:03:19.611Z,69.67
2019-01-24T06:05:48.092Z,64.90
2019-01-24T06:08:16.587Z,64.50
2019-01-24T06:10:45.144Z,67.37
2019-01-24T06:13:13.708Z,66.27
2019-01-24T06:15:42.173Z,66.90
2019-01-24T06:18:10.670Z,65.47
2019-01-24T06:20:39.407Z,65.60
2019-01-24T06:23:08.286Z,68.37
2019-01-24T06:25:36.751Z,75.10
2019-01-24T06:28:05.395Z,69.80
2019-01-24T06:30:33.901Z,67.23
2019-01-24T06:33:02.467Z,70.83
2019-01-24T06:35:31.327Z,65.27
2019-01-24T06:38:00.188Z,65.07
2019-01-24T06:40:28.703Z,71.03
2019-01-24T06:42:57.238Z,63.03
2019-01-24T06:45:25.745Z,69.87
2019-01-24T06:47:54.250Z,68.70
2019-01-24T06:50:22.880Z,68.37
2019-01-24T06:52:51.446Z,69.30
2019-01-24T06:55:29.479Z,83.07
2019-01-24T06:57:58.040Z,82.43
2019-01-24T07:00:26.639Z,75.37
2019-01-24T07:02:55.231Z,81.93
2019-01-24T07:05:23.804Z,74.77
2019-01-24T07:07:52.381Z,72.20
2019-01-24T07:10:22.815Z,75.90
2019-01-24T07:12:51.372Z,72.63
2019-01-24T07:15:21.814Z,72.20
2019-01-24T07:17:50.671Z,68.57
2019-01-24T07:20:20.776Z,61.27
2019-01-24T07:22:49.395Z,76.67
2019-01-24T07:25:20.409Z,67.77
2019-01-24T07:27:48.895Z,75.80
2019-01-24T07:30:19.623Z,69.40
2019-01-24T07:32:48.842Z,69.37
2019-01-24T07:35:18.553Z,68.37
2019-01-24T07:37:47.363Z,69.30
2019-01-24T07:40:17.412Z,72.23
2019-01-24T07:42:45.997Z,72.17
2019-01-24T07:45:29.412Z,82.27
2019-01-24T07:47:57.895Z,68.43
2019-01-24T07:50:26.446Z,69.63
2019-01-24T07:52:55.026Z,67.10
2019-01-24T07:55:23.495Z,75.10
2019-01-24T07:57:52.013Z,67.47
2019-01-24T08:00:25.782Z,74.43
2019-01-24T08:02:54.538Z,76.60
2019-01-24T08:05:24.438Z,70.70
2019-01-24T08:07:53.330Z,69.37
2019-01-24T08:10:23.306Z,65.20
2019-01-24T08:12:52.367Z,69.00
2019-01-24T08:15:22.183Z,72.03
2019-01-24T08:17:50.980Z,71.73
2019-01-24T08:20:22.107Z,73.43
2019-01-24T08:22:50.704Z,72.17
2019-01-24T08:25:19.349Z,66.67
2019-01-24T08:27:47.973Z,66.53
2019-01-24T08:30:27.720Z,71.23
2019-01-24T08:32:56.264Z,75.53
2019-01-24T08:35:24.880Z,73.77
2019-01-24T08:37:53.631Z,79.63
2019-01-24T08:40:23.452Z,65.00
2019-01-24T08:42:52.393Z,74.43
2019-01-24T08:45:21.108Z,75.67
2019-01-24T08:47:49.597Z,75.87
2019-01-24T08:50:20.126Z,72.90
2019-01-24T08:52:49.772Z,76.40
2019-01-24T08:55:36.163Z,70.80
2019-01-24T08:58:05.606Z,76.73
2019-01-24T09:00:34.124Z,77.27
2019-01-24T09:03:03.218Z,81.57
2019-01-24T09:05:31.803Z,69.80
2019-01-24T09:08:00.274Z,81.07
2019-01-24T09:10:34.159Z,75.03
2019-01-24T09:13:02.837Z,96.63
2019-01-24T09:15:31.145Z,95.43
2019-01-24T09:17:59.766Z,95.53
2019-01-24T09:20:28.349Z,85.60
2019-01-24T09:22:56.951Z,87.70
2019-01-24T09:25:25.801Z,82.77
2019-01-24T09:27:54.337Z,86.90
2019-01-24T09:30:27.691Z,80.47
2019-01-24T09:32:56.563Z,75.80
2019-01-24T09:35:25.375Z,77.63
2019-01-24T09:37:54.029Z,74.63
2019-01-24T09:40:23.516Z,73.90
2019-01-24T09:42:52.100Z,75.07
2019-01-24T09:45:27.782Z,84.33
2019-01-24T09:47:58.337Z,84.00
2019-01-24T09:50:27.886Z,97.83
2019-01-24T09:52:56.607Z,97.00
2019-01-24T09:55:25.371Z,85.87
2019-01-24T09:57:53.910Z,87.73
2019-01-24T10:00:30.964Z,96.67
2019-01-24T10:02:59.598Z,90.47
2019-01-24T10:05:28.173Z,84.70
2019-01-24T10:07:56.788Z,83.47
2019-01-24T10:10:27.285Z,86.67
2019-01-24T10:12:56.645Z,87.17
2019-01-24T10:15:25.326Z,82.87
2019-01-24T10:17:55.022Z,78.27
2019-01-24T10:20:26.014Z,84.53
2019-01-24T10:22:54.751Z,80.17
2019-01-24T10:25:31.718Z,86.23
2019-01-24T10:28:00.227Z,91.03
2019-01-24T10:30:28.945Z,84.73
2019-01-24T10:32:57.532Z,90.63
2019-01-24T10:35:26.193Z,93.37
2019-01-24T10:37:54.722Z,102.23
2019-01-24T10:40:27.102Z,85.53
2019-01-24T10:42:56.111Z,96.30
2019-01-24T10:45:24.730Z,91.90
2019-01-24T10:47:54.413Z,88.50
2019-01-24T10:50:25.046Z,109.33
2019-01-24T10:52:55.403Z,99.33
2019-01-24T10:55:28.209Z,92.30
2019-01-24T10:57:58.756Z,84.77
2019-01-24T11:00:31.335Z,87.17
2019-01-24T11:03:00.157Z,86.13
2019-01-24T11:05:28.429Z,95.97
2019-01-24T11:07:57.583Z,107.50
2019-01-24T11:10:26.064Z,88.90
2019-01-24T11:12:54.569Z,90.50
2019-01-24T11:15:26.212Z,91.13
2019-01-24T11:17:54.790Z,82.80
2019-01-24T11:20:23.371Z,86.33
2019-01-24T11:22:51.921Z,89.30
2019-01-24T11:25:26.723Z,79.43
2019-01-24T11:27:55.442Z,75.27
2019-01-24T11:30:29.058Z,82.00
2019-01-24T11:32:57.620Z,82.53
2019-01-24T11:35:34.075Z,74.20
2019-01-24T11:38:02.655Z,88.00
2019-01-24T11:40:31.229Z,79.23
2019-01-24T11:42:59.804Z,105.97
2019-01-24T11:45:31.227Z,86.77
2019-01-24T11:47:59.994Z,95.40
2019-01-24T11:50:28.460Z,94.33
2019-01-24T11:52:56.930Z,90.23
2019-01-24T11:55:25.429Z,86.43
2019-01-24T11:57:53.977Z,86.03
2019-01-24T12:00:32.704Z,96.30
2019-01-24T12:03:01.329Z,101.70
2019-01-24T12:05:29.889Z,102.03
2019-01-24T12:07:58.364Z,85.50
2019-01-24T12:10:28.404Z,103.20
2019-01-24T12:12:56.885Z,84.90
2019-01-24T12:15:28.186Z,101.13
2019-01-24T12:17:56.692Z,97.90
2019-01-24T12:20:26.218Z,106.50
2019-01-24T12:22:55.146Z,96.07
2019-01-24T12:25:23.824Z,98.13
2019-01-24T12:27:52.422Z,96.00
2019-01-24T12:30:26.304Z,95.47
2019-01-24T12:32:54.924Z,95.63
2019-01-24T12:35:23.469Z,90.87
2019-01-24T12:37:53.427Z,93.33
2019-01-24T12:40:22.241Z,77.20
2019-01-24T12:42:51.201Z,90.50
2019-01-24T12:45:22.777Z,90.60
2019-01-24T12:47:51.422Z,94.50
2019-01-24T12:50:20.848Z,116.33
2019-01-24T12:52:51.599Z,105.63
2019-01-24T12:55:20.247Z,92.37
2019-01-24T12:57:48.908Z,97.83
2019-01-24T13:00:23.205Z,99.40
2019-01-24T13:02:51.745Z,94.33
2019-01-24T13:05:20.293Z,98.97
2019-01-24T13:07:49.523Z,85.03
2019-01-24T13:10:20.884Z,86.17
2019-01-24T13:12:49.854Z,81.53
2019-01-24T13:15:27.216Z,77.10
2019-01-24T13:17:56.039Z,77.27
2019-01-24T13:20:24.527Z,92.37
2019-01-24T13:22:53.116Z,81.53
2019-01-24T13:25:27.924Z,81.27
2019-01-24T13:27:56.471Z,74.77
2019-01-24T13:30:27.083Z,80.20
2019-01-24T13:32:55.649Z,74.33
2019-01-24T13:35:24.680Z,75.83
2019-01-24T13:37:53.308Z,76.97
2019-01-24T13:40:24.431Z,76.30
2019-01-24T13:42:53.443Z,78.63
2019-01-24T13:45:24.469Z,72.47
2019-01-24T13:47:53.207Z,79.27
2019-01-24T13:50:21.905Z,80.97
2019-01-24T13:52:50.645Z,78.60
2019-01-24T13:55:19.276Z,82.27
2019-01-24T13:57:48.046Z,65.83
2019-01-24T14:00:19.509Z,91.33
2019-01-24T14:02:50.853Z,92.57
2019-01-24T14:05:19.888Z,84.97
2019-01-24T14:07:48.423Z,90.87
2019-01-24T14:10:18.358Z,87.37
2019-01-24T14:12:47.039Z,83.33
2019-01-24T14:15:18.103Z,91.37
2019-01-24T14:17:46.793Z,84.03
2019-01-24T14:20:22.022Z,83.80
2019-01-24T14:22:50.854Z,87.73
2019-01-24T14:25:20.971Z,79.60
2019-01-24T14:27:49.703Z,83.37
2019-01-24T14:30:26.032Z,88.90
2019-01-24T14:32:55.063Z,81.87
2019-01-24T14:35:23.773Z,94.73
2019-01-24T14:37:52.625Z,94.53
2019-01-24T14:40:21.288Z,94.93
2019-01-24T14:42:49.966Z,99.73
2019-01-24T14:45:27.357Z,86.60
2019-01-24T14:47:56.353Z,84.83
2019-01-24T14:50:28.008Z,90.97
2019-01-24T14:52:56.978Z,86.53
2019-01-24T14:55:25.607Z,87.43
2019-01-24T14:57:54.224Z,92.90
2019-01-24T15:00:25.812Z,74.80
2019-01-24T15:02:54.362Z,74.60
2019-01-24T15:05:22.998Z,71.13
2019-01-24T15:07:51.537Z,77.60
2019-01-24T15:10:20.266Z,81.83
2019-01-24T15:12:48.835Z,77.20
2019-01-24T15:15:19.368Z,73.47
2019-01-24T15:17:47.943Z,80.30
2019-01-24T15:20:18.059Z,79.53
2019-01-24T15:22:46.782Z,74.23
2019-01-24T15:25:20.409Z,73.93
2019-01-24T15:27:49.095Z,75.03
2019-01-24T15:30:23.226Z,73.20
2019-01-24T15:32:51.762Z,71.33
2019-01-24T15:35:20.487Z,68.10
2019-01-24T15:37:54.317Z,69.90
2019-01-24T15:40:27.965Z,69.70
2019-01-24T15:42:56.500Z,69.67
2019-01-24T15:45:25.149Z,75.30
2019-01-24T15:47:53.646Z,75.43
2019-01-24T15:50:23.483Z,62.53
2019-01-24T15:52:52.500Z,71.50
2019-01-24T15:55:21.143Z,72.13
2019-01-24T15:57:49.616Z,68.57
2019-01-24T16:00:29.999Z,74.97
2019-01-24T16:02:58.706Z,72.90
2019-01-24T16:05:27.322Z,72.73
2019-01-24T16:08:01.564Z,71.23
2019-01-24T16:10:26.305Z,74.90
2019-01-24T16:12:54.938Z,69.50
2019-01-24T16:15:36.825Z,81.17
2019-01-24T16:18:07.905Z,70.50
2019-01-24T16:20:36.421Z,69.87
2019-01-24T16:23:06.189Z,67.13
2019-01-24T16:25:35.240Z,72.73
2019-01-24T16:28:03.880Z,68.30
2019-01-24T16:30:34.298Z,65.70
2019-01-24T16:33:04.630Z,83.00
2019-01-24T16:35:33.139Z,77.50
2019-01-24T16:38:09.024Z,75.33
2019-01-24T16:40:32.382Z,75.07
2019-01-24T16:43:01.097Z,79.80
2019-01-24T16:45:30.311Z,73.80
2019-01-24T16:47:59.011Z,77.47
2019-01-24T16:50:28.117Z,105.70
2019-01-24T16:52:56.937Z,89.87
2019-01-24T16:55:25.502Z,94.80
2019-01-24T16:57:54.776Z,77.90
2019-01-24T17:00:32.862Z,80.23
2019-01-24T17:03:01.476Z,69.33
2019-01-24T17:05:30.434Z,76.20
2019-01-24T17:07:59.078Z,66.13
2019-01-24T17:10:29.038Z,65.20
2019-01-24T17:12:58.022Z,71.83
2019-01-24T17:15:26.734Z,67.23
2019-01-24T17:17:55.349Z,67.83
2019-01-24T17:20:26.569Z,63.90
2019-01-24T17:22:55.415Z,71.23
2019-01-24T17:25:25.857Z,73.20
2019-01-24T17:27:54.415Z,77.27
2019-01-24T17:30:25.786Z,76.80
2019-01-24T17:32:54.410Z,65.63
2019-01-24T17:35:23.298Z,63.53
2019-01-24T17:37:51.994Z,72.67
2019-01-24T17:40:23.200Z,73.70
2019-01-24T17:42:51.783Z,72.73
2019-01-24T17:45:21.184Z,74.67
2019-01-24T17:47:51.217Z,72.67
2019-01-24T17:50:19.855Z,73.67
2019-01-24T17:52:48.884Z,76.93
2019-01-24T17:55:23.604Z,75.33
2019-01-24T17:57:52.189Z,79.10
2019-01-24T18:00:22.781Z,75.87
2019-01-24T18:02:51.342Z,77.97
2019-01-24T18:05:20.198Z,78.90
2019-01-24T18:07:48.959Z,78.63
2019-01-24T18:10:22.808Z,81.27
2019-01-24T18:12:51.424Z,81.37
2019-01-24T18:15:24.891Z,82.83
2019-01-24T18:17:53.432Z,77.27
2019-01-24T18:20:24.604Z,85.07
2019-01-24T18:22:53.231Z,78.67
2019-01-24T18:25:22.146Z,85.73
2019-01-24T18:27:50.758Z,84.63
2019-01-24T18:30:25.826Z,84.00
2019-01-24T18:32:54.801Z,78.40
2019-01-24T18:35:23.731Z,80.30
2019-01-24T18:37:52.286Z,80.37
2019-01-24T18:40:22.932Z,80.37
2019-01-24T18:42:51.965Z,82.50
2019-01-24T18:45:26.339Z,80.83
2019-01-24T18:47:55.317Z,78.13
2019-01-24T18:50:23.935Z,80.03
2019-01-24T18:52:52.583Z,83.00
2019-01-24T18:55:21.066Z,89.23
2019-01-24T18:57:49.554Z,77.33
2019-01-24T19:00:22.189Z,80.97
2019-01-24T19:02:50.694Z,82.00
2019-01-24T19:05:19.485Z,88.43
2019-01-24T19:07:47.947Z,101.23
2019-01-24T19:10:16.953Z,102.07
2019-01-24T19:12:45.478Z,94.53
2019-01-24T19:15:17.565Z,100.23
2019-01-24T19:17:46.995Z,111.07
2019-01-24T19:20:16.632Z,106.53
2019-01-24T19:22:45.254Z,101.63
2019-01-24T19:25:15.871Z,101.30
2019-01-24T19:27:44.442Z,101.00
2019-01-24T19:30:31.034Z,87.60
2019-01-24T19:33:00.127Z,105.73
2019-01-24T19:35:28.760Z,117.53
2019-01-24T19:37:57.276Z,111.87
2019-01-24T19:40:30.237Z,100.80
2019-01-24T19:42:58.860Z,107.60
2019-01-24T19:45:27.995Z,102.40
2019-01-24T19:47:56.656Z,96.27
2019-01-24T19:50:27.595Z,93.80
2019-01-24T19:52:56.238Z,103.90
2019-01-24T19:55:24.729Z,120.20
2019-01-24T19:57:54.233Z,104.80
2019-01-24T20:00:27.819Z,103.60
2019-01-24T20:02:56.659Z,95.70
2019-01-24T20:05:25.784Z,111.63
2019-01-24T20:07:54.441Z,114.70
2019-01-24T20:10:27.976Z,97.37
2019-01-24T20:12:56.698Z,103.40
2019-01-24T20:15:30.377Z,96.83
2019-01-24T20:17:59.139Z,113.03
2019-01-24T20:20:28.669Z,100.17
2019-01-24T20:22:57.244Z,101.27
2019-01-24T20:25:30.974Z,94.13
2019-01-24T20:27:59.448Z,92.93
2019-01-24T20:30:29.169Z,98.37
2019-01-24T20:32:58.070Z,99.70
2019-01-24T20:35:32.335Z,96.50
2019-01-24T20:38:00.827Z,81.60
2019-01-24T20:40:29.471Z,99.67
2019-01-24T20:42:58.101Z,113.53
2019-01-24T20:45:26.749Z,100.70
2019-01-24T20:47:55.410Z,97.13
2019-01-24T20:50:23.927Z,97.33
2019-01-24T20:52:53.086Z,112.47
2019-01-24T20:55:21.758Z,114.17
2019-01-24T20:57:50.331Z,105.17
2019-01-24T21:00:24.741Z,107.37
2019-01-24T21:02:54.320Z,124.17
2019-01-24T21:05:24.023Z,108.00
2019-01-24T21:07:52.662Z,98.50
2019-01-24T21:10:26.102Z,105.90
2019-01-24T21:12:54.677Z,101.73
2019-01-24T21:15:23.217Z,94.80
2019-01-24T21:17:51.716Z,93.53
2019-01-24T21:20:25.452Z,94.40
2019-01-24T21:22:53.953Z,94.67
2019-01-24T21:25:24.310Z,87.77
2019-01-24T21:27:53.076Z,90.00
2019-01-24T21:30:24.611Z,90.50
2019-01-24T21:32:53.654Z,85.20
2019-01-24T21:35:22.436Z,87.47
2019-01-24T21:37:51.224Z,97.67
2019-01-24T21:40:21.674Z,86.43
2019-01-24T21:42:50.155Z,84.70
2019-01-24T21:45:22.068Z,84.23
2019-01-24T21:47:51.011Z,87.07
2019-01-24T21:50:22.200Z,76.87
2019-01-24T21:52:50.743Z,93.67
2019-01-24T21:55:20.327Z,89.17
2019-01-24T21:57:48.935Z,84.03
2019-01-24T22:00:26.294Z,88.17
2019-01-24T22:02:54.878Z,88.53
2019-01-24T22:05:23.893Z,91.47
2019-01-24T22:07:52.531Z,83.83
2019-01-24T22:10:23.618Z,89.57
2019-01-24T22:12:52.314Z,81.40
2019-01-24T22:15:29.061Z,84.50
2019-01-24T22:17:58.616Z,85.73
2019-01-24T22:20:28.592Z,88.53
2019-01-24T22:22:58.225Z,89.37
2019-01-24T22:25:31.783Z,90.03
2019-01-24T22:28:00.439Z,84.70
2019-01-24T22:30:36.464Z,82.83
2019-01-24T22:33:05.984Z,90.40
2019-01-24T22:35:35.748Z,86.00
2019-01-24T22:38:05.169Z,88.43
2019-01-24T22:40:33.682Z,83.33
2019-01-24T22:43:02.162Z,84.30
2019-01-24T22:45:30.692Z,84.07
2019-01-24T22:48:00.325Z,81.97
2019-01-24T22:50:28.860Z,81.07
2019-01-24T22:52:57.605Z,89.20
2019-01-24T22:55:26.948Z,86.03
2019-01-24T22:57:56.322Z,80.23
2019-01-24T23:00:47.664Z,83.37
2019-01-24T23:03:19.247Z,81.80
2019-01-24T23:05:47.790Z,83.37
2019-01-24T23:08:16.594Z,77.10
2019-01-24T23:10:45.156Z,78.10
2019-01-24T23:13:13.848Z,72.50
2019-01-24T23:15:42.471Z,80.23
2019-01-24T23:18:11.063Z,85.17
2019-01-24T23:20:39.557Z,79.87
2019-01-24T23:23:08.033Z,84.93
2019-01-24T23:25:36.550Z,77.07
2019-01-24T23:28:05.165Z,79.10
2019-01-24T23:30:34.369Z,76.37
2019-01-24T23:33:03.945Z,84.90
2019-01-24T23:35:32.568Z,88.77
2019-01-24T23:38:01.066Z,82.37
2019-01-24T23:40:29.627Z,75.20
2019-01-24T23:42:58.112Z,78.60
2019-01-24T23:45:26.786Z,81.17
2019-01-24T23:47:55.617Z,76.77
2019-01-24T23:50:24.179Z,69.97
2019-01-24T23:52:52.766Z,77.33
2019-01-24T23:55:21.231Z,71.13
2019-01-24T23:57:49.788Z,69.23
